createdAt,value
2019-05-20T00:04:48.622Z,14.90
2019-05-20T00:09:56.083Z,14.50
2019-05-20T00:15:03.477Z,14.90
2019-05-20T00:20:11.844Z,15.00
2019-05-20T00:25:19.218Z,14.60
2019-05-20T00:30:26.735Z,14.90
2019-05-20T00:35:34.053Z,14.50
2019-05-20T00:40:41.527Z,14.80
2019-05-20T00:45:49.916Z,15.10
2019-05-20T00:50:57.495Z,15.10
2019-05-20T00:56:05.334Z,14.80
2019-05-20T01:01:12.734Z,14.60
2019-05-20T01:06:20.139Z,15.00
2019-05-20T01:11:27.549Z,14.60
2019-05-20T01:16:34.949Z,14.90
2019-05-20T01:21:42.366Z,15.00
2019-05-20T01:26:49.779Z,14.60
2019-05-20T01:31:57.225Z,15.00
2019-05-20T01:37:04.598Z,15.20
2019-05-20T01:42:11.962Z,15.10
2019-05-20T01:47:19.335Z,15.00
2019-05-20T01:52:26.802Z,14.70
2019-05-20T01:57:34.089Z,14.80
2019-05-20T02:02:41.521Z,14.80
2019-05-20T02:07:48.927Z,14.90
2019-05-20T02:12:56.352Z,15.10
2019-05-20T02:18:03.790Z,14.80
2019-05-20T02:23:15.620Z,14.90
2019-05-20T02:28:23.078Z,14.80
2019-05-20T02:33:47.837Z,14.60
2019-05-20T02:38:39.519Z,14.40
2019-05-20T02:43:46.931Z,14.50
2019-05-20T02:48:54.426Z,14.50
2019-05-20T02:54:03.196Z,13.60
2019-05-20T02:59:10.532Z,13.50
2019-05-20T03:04:17.974Z,13.60
2019-05-20T03:09:25.369Z,14.00
2019-05-20T03:14:32.803Z,13.90
2019-05-20T03:19:40.201Z,14.10
2019-05-20T03:24:47.506Z,14.30
2019-05-20T03:29:54.936Z,13.90
2019-05-20T03:35:02.457Z,13.30
2019-05-20T03:40:10.957Z,13.40
2019-05-20T03:45:18.388Z,13.50
2019-05-20T03:50:25.754Z,12.90
2019-05-20T03:55:33.116Z,13.10
2019-05-20T04:00:46.666Z,12.90
2019-05-20T04:05:53.989Z,12.80
2019-05-20T04:11:01.301Z,13.40
2019-05-20T04:16:08.787Z,13.50
2019-05-20T04:21:16.223Z,13.10
2019-05-20T04:26:23.607Z,13.40
2019-05-20T04:31:31.029Z,13.70
2019-05-20T04:36:38.465Z,13.90
2019-05-20T04:41:45.896Z,14.00
2019-05-20T04:46:53.541Z,14.00
2019-05-20T04:52:00.909Z,14.00
2019-05-20T04:57:09.181Z,14.00
2019-05-20T05:02:16.602Z,14.10
2019-05-20T05:07:25.131Z,14.20
2019-05-20T05:12:32.546Z,14.30
2019-05-20T05:17:40.194Z,14.10
2019-05-20T05:22:47.587Z,14.40
2019-05-20T05:27:55.073Z,14.50
2019-05-20T05:33:02.463Z,14.60
2019-05-20T05:38:10.272Z,14.50
2019-05-20T05:43:17.548Z,14.70
2019-05-20T05:48:25.033Z,14.90
2019-05-20T05:53:32.493Z,15.10
2019-05-20T05:58:39.888Z,15.30
2019-05-20T06:03:47.311Z,15.50
2019-05-20T06:08:54.630Z,15.70
2019-05-20T06:14:02.018Z,15.90
2019-05-20T06:19:09.349Z,16.00
2019-05-20T06:24:16.751Z,16.10
2019-05-20T06:29:24.159Z,16.10
2019-05-20T06:34:32.343Z,16.10
2019-05-20T06:39:39.784Z,16.20
2019-05-20T06:44:53.163Z,16.20
2019-05-20T06:49:56.197Z,16.40
2019-05-20T06:55:03.789Z,16.50
2019-05-20T07:00:12.417Z,16.60
2019-05-20T07:05:19.890Z,16.70
2019-05-20T07:10:27.239Z,16.80
2019-05-20T07:15:34.656Z,16.90
2019-05-20T07:20:42.077Z,17.10
2019-05-20T07:25:49.482Z,17.20
2019-05-20T07:30:56.839Z,17.40
2019-05-20T07:36:04.242Z,17.40
2019-05-20T07:41:11.560Z,17.60
2019-05-20T07:46:20.322Z,17.70
2019-05-20T07:51:28.736Z,17.80
2019-05-20T07:56:40.718Z,17.90
2019-05-20T08:01:48.048Z,18.00
2019-05-20T08:06:55.582Z,18.10
2019-05-20T08:12:03.050Z,18.20
2019-05-20T08:17:10.652Z,18.20
2019-05-20T08:22:18.079Z,18.40
2019-05-20T08:27:25.490Z,18.40
2019-05-20T08:32:32.959Z,18.40
2019-05-20T08:37:45.271Z,18.40
2019-05-20T08:42:49.424Z,18.40
2019-05-20T08:47:56.744Z,18.40
2019-05-20T08:53:04.193Z,18.40
2019-05-20T08:58:11.632Z,18.50
2019-05-20T09:03:19.015Z,18.60
2019-05-20T09:08:26.425Z,18.60
2019-05-20T09:13:33.791Z,18.50
2019-05-20T09:18:41.209Z,18.50
2019-05-20T09:23:48.585Z,18.60
2019-05-20T09:28:57.108Z,18.60
2019-05-20T09:34:04.703Z,18.60
2019-05-20T09:39:12.206Z,18.60
2019-05-20T09:44:19.628Z,18.60
2019-05-20T09:49:27.087Z,18.70
2019-05-20T09:54:34.498Z,18.80
2019-05-20T09:59:43.638Z,18.80
2019-05-20T10:04:50.964Z,18.90
2019-05-20T10:09:58.279Z,18.90
2019-05-20T10:15:05.996Z,19.00
2019-05-20T10:20:15.236Z,19.10
2019-05-20T10:25:23.184Z,18.90
2019-05-20T10:30:30.625Z,18.70
2019-05-20T10:35:37.978Z,18.80
2019-05-20T10:40:45.671Z,18.50
2019-05-20T10:45:53.997Z,18.60
2019-05-20T10:51:01.412Z,18.60
2019-05-20T10:56:08.859Z,18.50
2019-05-20T11:01:16.219Z,18.40
2019-05-20T11:06:23.543Z,18.50
2019-05-20T11:11:30.979Z,18.40
2019-05-20T11:16:38.206Z,18.40
2019-05-20T11:21:45.538Z,18.30
2019-05-20T11:26:52.977Z,18.30
2019-05-20T11:32:00.381Z,18.20
2019-05-20T11:37:07.754Z,18.20
2019-05-20T11:42:15.148Z,18.20
2019-05-20T11:47:22.513Z,18.10
2019-05-20T11:52:29.897Z,18.20
2019-05-20T11:57:37.312Z,18.10
2019-05-20T12:02:45.734Z,17.90
2019-05-20T12:07:53.055Z,18.10
2019-05-20T12:13:00.433Z,18.60
2019-05-20T12:18:07.642Z,18.60
2019-05-20T12:23:15.013Z,18.60
2019-05-20T12:28:22.346Z,18.60
2019-05-20T12:33:29.701Z,18.30
2019-05-20T12:38:37.355Z,18.20
2019-05-20T12:43:45.353Z,18.30
2019-05-20T12:48:53.360Z,18.40
2019-05-20T12:54:01.008Z,18.50
2019-05-20T12:59:09.024Z,18.40
2019-05-20T13:04:16.543Z,18.30
2019-05-20T13:09:23.906Z,18.30
2019-05-20T13:14:35.639Z,18.40
2019-05-20T13:19:43.286Z,18.40
2019-05-20T13:24:50.545Z,18.20
2019-05-20T13:29:58.105Z,18.20
2019-05-20T13:35:05.675Z,18.20
2019-05-20T13:40:13.991Z,18.30
2019-05-20T13:45:21.883Z,18.30
2019-05-20T13:50:29.247Z,18.20
2019-05-20T13:55:36.564Z,18.10
2019-05-20T14:00:43.910Z,17.90
2019-05-20T14:05:52.739Z,17.70
2019-05-20T14:11:04.224Z,17.80
2019-05-20T14:16:09.387Z,17.70
2019-05-20T14:21:16.894Z,17.60
2019-05-20T14:26:24.733Z,17.40
2019-05-20T14:31:32.404Z,16.80
2019-05-20T14:36:40.529Z,16.50
2019-05-20T14:41:48.441Z,16.30
2019-05-20T14:46:55.868Z,16.40
2019-05-20T14:52:03.579Z,15.90
2019-05-20T14:57:11.306Z,15.90
2019-05-20T15:02:18.835Z,16.10
2019-05-20T15:07:30.695Z,16.20
2019-05-20T15:12:35.459Z,16.30
2019-05-20T15:17:42.933Z,16.30
2019-05-20T15:22:50.253Z,16.30
2019-05-20T15:27:57.916Z,15.90
2019-05-20T15:33:05.394Z,15.80
2019-05-20T15:38:12.808Z,16.00
2019-05-20T15:43:20.127Z,16.10
2019-05-20T15:48:27.475Z,16.10
2019-05-20T15:53:34.816Z,16.10
2019-05-20T15:58:42.288Z,16.20
2019-05-20T16:03:51.489Z,16.30
2019-05-20T16:08:58.996Z,16.30
2019-05-20T16:14:06.434Z,16.30
2019-05-20T16:19:13.850Z,16.50
2019-05-20T16:24:21.536Z,16.50
2019-05-20T16:29:29.260Z,16.10
2019-05-20T16:34:36.827Z,16.40
2019-05-20T16:39:44.440Z,16.40
2019-05-20T16:44:51.955Z,16.40
2019-05-20T16:49:59.610Z,16.20
2019-05-20T16:55:07.193Z,16.40
2019-05-20T17:00:30.961Z,16.40
2019-05-20T17:05:26.446Z,16.40
2019-05-20T17:10:33.963Z,16.40
2019-05-20T17:15:41.809Z,16.50
2019-05-20T17:20:49.102Z,16.50
2019-05-20T17:25:56.604Z,16.50
2019-05-20T17:31:04.053Z,16.50
2019-05-20T17:36:11.593Z,16.50
2019-05-20T17:41:19.006Z,16.40
2019-05-20T17:46:26.704Z,16.40
2019-05-20T17:51:34.126Z,16.40
2019-05-20T17:56:41.406Z,16.40
2019-05-20T18:01:48.948Z,16.30
2019-05-20T18:06:56.654Z,16.40
2019-05-20T18:12:04.091Z,16.40
2019-05-20T18:17:11.635Z,16.40
2019-05-20T18:22:19.412Z,16.20
2019-05-20T18:27:26.955Z,16.20
2019-05-20T18:32:34.634Z,16.20
2019-05-20T18:37:42.301Z,16.10
2019-05-20T18:42:49.993Z,16.00
2019-05-20T18:47:57.778Z,15.70
2019-05-20T18:53:05.443Z,15.90
2019-05-20T18:58:13.048Z,15.60
2019-05-20T19:03:20.946Z,15.80
2019-05-20T19:08:28.674Z,15.90
2019-05-20T19:13:36.111Z,15.70
2019-05-20T19:18:43.522Z,15.50
2019-05-20T19:23:51.092Z,15.10
2019-05-20T19:28:58.516Z,15.30
2019-05-20T19:34:06.003Z,15.30
2019-05-20T19:39:13.591Z,15.30
2019-05-20T19:44:21.184Z,15.20
2019-05-20T19:49:30.826Z,14.80
2019-05-20T19:54:38.299Z,14.50
2019-05-20T19:59:45.646Z,15.00
2019-05-20T20:04:53.070Z,15.10
2019-05-20T20:10:00.478Z,15.10
2019-05-20T20:15:08.640Z,15.00
2019-05-20T20:20:16.928Z,14.90
2019-05-20T20:25:25.364Z,15.00
2019-05-20T20:30:32.638Z,14.90
2019-05-20T20:35:39.969Z,15.00
2019-05-20T20:40:47.374Z,14.90
2019-05-20T20:45:54.802Z,14.40
2019-05-20T20:51:02.233Z,14.20
2019-05-20T20:56:24.138Z,14.50
2019-05-20T21:01:18.837Z,14.50
2019-05-20T21:06:26.228Z,14.40
2019-05-20T21:11:33.635Z,14.60
2019-05-20T21:16:41.054Z,14.50
2019-05-20T21:21:48.457Z,14.30
2019-05-20T21:26:55.867Z,14.30
2019-05-20T21:32:03.345Z,14.10
2019-05-20T21:37:10.809Z,14.10
2019-05-20T21:42:18.157Z,13.80
2019-05-20T21:47:25.549Z,14.10
2019-05-20T21:52:32.969Z,13.70
2019-05-20T21:57:40.291Z,13.90
2019-05-20T22:02:47.582Z,13.70
2019-05-20T22:07:55.057Z,13.10
2019-05-20T22:13:02.511Z,13.70
2019-05-20T22:18:10.097Z,13.80
2019-05-20T22:23:34.919Z,13.80
2019-05-20T22:28:42.479Z,13.30
2019-05-20T22:33:49.919Z,12.90
2019-05-20T22:38:57.362Z,13.00
2019-05-20T22:44:04.863Z,12.90
2019-05-20T22:49:12.326Z,13.50
2019-05-20T22:54:19.764Z,13.40
2019-05-20T22:59:27.233Z,13.10
2019-05-20T23:04:34.751Z,13.30
2019-05-20T23:09:42.165Z,13.00
2019-05-20T23:14:49.578Z,12.40
2019-05-20T23:19:57.033Z,12.80
2019-05-20T23:25:05.678Z,12.60
2019-05-20T23:30:14.019Z,12.90
2019-05-20T23:35:21.402Z,13.00
2019-05-20T23:40:28.817Z,13.00
2019-05-20T23:45:36.319Z,12.90
2019-05-20T23:50:43.741Z,12.80
2019-05-20T23:55:51.369Z,12.70
